Time;durP1;ratioP1;P1;durP2;ratioP2;P2;SDS_P1;SDS_P2;PMS_P1;PMS_P2;Temp;Humidity;BMP_temperature;BMP_pressure;BME280_temperature;BME280_humidity;BME280_pressure;Samples;Min_cycle;Max_cycle;Signal;HPM_P1;HPM_P2
2021/03/18 00:01:15;;;;;;;8.23;5.70;;;23.60;66.20;;;;;;6241467;23;20008;-75
2021/03/18 00:03:44;;;;;;;8.82;4.15;;;23.60;66.30;;;;;;6242217;23;20003;-77
2021/03/18 00:06:11;;;;;;;7.18;3.03;;;23.50;66.20;;;;;;6242139;23;19996;-77
2021/03/18 00:08:40;;;;;;;9.55;3.13;;;23.60;66.20;;;;;;6242510;23;20053;-75
2021/03/18 00:11:09;;;;;;;6.22;2.42;;;23.50;66.00;;;;;;6241436;23;20007;-74
2021/03/18 00:13:38;;;;;;;6.25;2.70;;;23.50;66.10;;;;;;6242339;23;20327;-76
2021/03/18 00:16:05;;;;;;;10.00;3.20;;;23.50;66.20;;;;;;6241436;23;20038;-75
2021/03/18 00:18:37;;;;;;;10.07;2.20;;;23.50;66.30;;;;;;6243318;23;20007;-76
2021/03/18 00:21:04;;;;;;;7.57;2.53;;;23.50;66.40;;;;;;6242431;23;20018;-75
2021/03/18 00:23:32;;;;;;;7.88;3.65;;;23.40;66.30;;;;;;6240670;23;20419;-73
2021/03/18 00:26:00;;;;;;;12.02;3.03;;;23.40;66.30;;;;;;6242664;23;20010;-76
2021/03/18 00:28:28;;;;;;;7.55;2.13;;;23.40;66.40;;;;;;6241187;23;20061;-74
2021/03/18 00:30:55;;;;;;;6.38;2.38;;;23.40;66.40;;;;;;6242728;23;20007;-76
2021/03/18 00:33:22;;;;;;;9.95;2.22;;;23.40;66.40;;;;;;6240337;23;20366;-74
2021/03/18 00:36:28;;;;;;;6.88;2.15;;;23.30;66.30;;;;;;6237615;23;20000;-76
2021/03/18 00:39:35;;;;;;;9.02;2.60;;;23.30;66.30;;;;;;6242467;23;20004;-76
2021/03/18 00:42:41;;;;;;;7.70;2.50;;;23.30;66.30;;;;;;6241593;23;20450;-73
2021/03/18 00:45:47;;;;;;;8.63;3.00;;;23.30;66.40;;;;;;6240930;23;20079;-76
2021/03/18 00:48:33;;;;;;;;;;;23.30;66.40;;;;;;6215724;23;20008;-76
2021/03/18 00:51:39;;;;;;;9.75;2.22;;;23.20;66.50;;;;;;6239835;23;19899;-76
2021/03/18 00:54:45;;;;;;;10.35;2.80;;;23.20;66.50;;;;;;6241076;23;20000;-76
2021/03/18 00:57:51;;;;;;;6.25;3.28;;;23.20;66.70;;;;;;6242958;23;20008;-77
2021/03/18 01:01:00;;;;;;;8.55;2.75;;;23.20;66.70;;;;;;6241973;23;20470;-76
2021/03/18 01:04:06;;;;;;;7.97;3.13;;;23.20;66.70;;;;;;6240803;23;20734;-75
2021/03/18 01:07:12;;;;;;;6.68;2.60;;;23.10;66.70;;;;;;6242123;23;20039;-77
2021/03/18 01:10:18;;;;;;;7.55;2.28;;;23.10;66.70;;;;;;6242182;23;20008;-76
2021/03/18 01:13:24;;;;;;;7.22;2.85;;;23.10;66.80;;;;;;6240409;23;20000;-78
2021/03/18 01:16:30;;;;;;;6.68;2.10;;;23.10;66.90;;;;;;6240196;23;20008;-77
2021/03/18 01:19:39;;;;;;;6.18;2.35;;;23.10;66.90;;;;;;6215051;23;20000;-75
2021/03/18 01:22:45;;;;;;;12.15;3.50;;;23.10;66.90;;;;;;6242946;23;20012;-77
2021/03/18 01:25:51;;;;;;;6.65;3.78;;;23.00;66.90;;;;;;6240772;23;20004;-77
2021/03/18 01:28:57;;;;;;;6.15;2.40;;;23.00;66.90;;;;;;6241540;23;20000;-78
2021/03/18 01:32:03;;;;;;;9.95;3.40;;;23.00;66.90;;;;;;6241713;23;20031;-78
2021/03/18 01:35:09;;;;;;;7.80;2.45;;;23.00;67.00;;;;;;6241171;23;20435;-76
2021/03/18 01:38:15;;;;;;;6.03;2.47;;;23.00;67.00;;;;;;6238598;23;20073;-78
2021/03/18 01:41:21;;;;;;;6.70;2.22;;;22.90;67.00;;;;;;6241571;23;20012;-77
2021/03/18 01:44:28;;;;;;;5.53;2.20;;;23.00;67.00;;;;;;6242016;23;20019;-76
2021/03/18 01:47:34;;;;;;;8.98;3.17;;;22.90;67.00;;;;;;6240733;23;19999;-77
2021/03/18 01:50:40;;;;;;;9.75;3.38;;;22.90;67.10;;;;;;6240866;23;20027;-79
2021/03/18 01:53:46;;;;;;;13.30;3.03;;;22.90;67.30;;;;;;6214765;23;20304;-78
2021/03/18 01:56:52;;;;;;;6.78;3.50;;;22.90;67.30;;;;;;6240924;23;20454;-78
2021/03/18 01:59:58;;;;;;;10.50;3.45;;;22.90;67.50;;;;;;6240545;23;20000;-78
2021/03/18 02:03:04;;;;;;;11.57;3.30;;;22.90;67.60;;;;;;6241044;23;20010;-77
2021/03/18 02:06:10;;;;;;;8.27;2.85;;;22.80;67.70;;;;;;6241747;23;20003;-77
2021/03/18 02:09:16;;;;;;;5.70;3.05;;;22.80;67.70;;;;;;6240497;23;20000;-77
2021/03/18 02:12:22;;;;;;;6.95;3.17;;;22.80;67.80;;;;;;6213995;23;20009;-77
2021/03/18 02:15:29;;;;;;;8.00;2.92;;;22.80;67.80;;;;;;6241857;23;20003;-78
2021/03/18 02:18:33;;;;;;;11.43;3.70;;;22.80;67.90;;;;;;6241292;23;20027;-76
2021/03/18 02:21:25;;;;;;;8.40;3.80;;;22.80;68.10;;;;;;6240024;23;20034;-76
2021/03/18 02:24:12;;;;;;;10.30;4.28;;;22.70;68.10;;;;;;6237920;23;20012;-77
2021/03/18 02:26:38;;;;;;;9.20;4.05;;;22.70;68.30;;;;;;6236936;23;20004;-77
2021/03/18 02:29:40;;;;;;;6.75;3.60;;;22.70;68.30;;;;;;6214048;23;20316;-77
2021/03/18 02:32:40;;;;;;;10.00;3.72;;;22.70;68.30;;;;;;6237323;23;20478;-77
2021/03/18 02:35:38;;;;;;;10.60;4.13;;;22.70;68.40;;;;;;6240884;23;20451;-77
2021/03/18 02:38:04;;;;;;;11.38;3.88;;;22.70;68.30;;;;;;6240896;23;20000;-76
2021/03/18 02:41:13;;;;;;;12.43;3.95;;;22.80;68.50;;;;;;6241286;23;20439;-77
2021/03/18 02:44:05;;;;;;;8.45;4.03;;;22.70;68.40;;;;;;6242252;23;20000;-77
2021/03/18 02:47:14;;;;;;;10.05;3.63;;;22.70;68.50;;;;;;6240305;23;20004;-76
2021/03/18 02:50:20;;;;;;;14.10;5.15;;;22.70;68.50;;;;;;6242024;23;20316;-77
2021/03/18 02:53:26;;;;;;;8.40;5.03;;;22.70;68.50;;;;;;6243492;23;20103;-77
2021/03/18 02:56:19;;;;;;;10.98;4.88;;;22.70;68.50;;;;;;6241807;23;20031;-76
2021/03/18 02:58:49;;;;;;;13.18;4.32;;;22.60;68.40;;;;;;6243087;23;20029;-77
2021/03/18 03:01:17;;;;;;;14.02;4.50;;;22.60;68.50;;;;;;6242812;23;20018;-77
2021/03/18 03:03:44;;;;;;;10.73;4.80;;;22.60;68.30;;;;;;6243320;23;20351;-77
2021/03/18 03:06:13;;;;;;;10.70;4.55;;;22.60;68.30;;;;;;6243056;23;20420;-76
2021/03/18 03:08:40;;;;;;;7.45;4.28;;;22.60;68.20;;;;;;6242639;23;20000;-77
2021/03/18 03:11:08;;;;;;;8.40;5.35;;;22.60;68.80;;;;;;6241957;23;20075;-77
2021/03/18 03:13:38;;;;;;;8.30;3.67;;;22.60;68.10;;;;;;6240473;23;20432;-77
2021/03/18 03:16:15;;;;;;;11.25;4.25;;;22.60;68.00;;;;;;6243124;23;19996;-77
2021/03/18 03:18:44;;;;;;;17.08;4.97;;;22.60;67.90;;;;;;6243246;23;20071;-76
2021/03/18 03:21:13;;;;;;;10.20;4.57;;;22.50;67.80;;;;;;6242055;23;20019;-75
2021/03/18 03:23:40;;;;;;;12.00;4.45;;;22.50;67.80;;;;;;6243401;23;20061;-75
2021/03/18 03:26:07;;;;;;;9.07;3.83;;;22.50;67.80;;;;;;6241090;23;20039;-76
2021/03/18 03:28:37;;;;;;;10.20;3.67;;;22.50;67.70;;;;;;6243596;23;20055;-75
2021/03/18 03:31:03;;;;;;;9.82;3.40;;;22.50;67.40;;;;;;6241831;23;20000;-75
2021/03/18 03:33:30;;;;;;;9.65;4.93;;;22.40;67.30;;;;;;6243610;23;20026;-75
2021/03/18 03:35:58;;;;;;;8.73;4.80;;;22.40;67.20;;;;;;6240521;23;20004;-76
2021/03/18 03:38:25;;;;;;;8.73;4.22;;;22.40;67.20;;;;;;6241838;23;20016;-75
2021/03/18 03:40:51;;;;;;;11.30;6.28;;;22.40;67.10;;;;;;6242526;23;20020;-77
2021/03/18 03:43:19;;;;;;;10.73;4.88;;;22.40;67.00;;;;;;6241602;23;20003;-76
2021/03/18 03:45:47;;;;;;;7.93;5.30;;;22.40;66.90;;;;;;6243125;23;20004;-76
2021/03/18 03:48:14;;;;;;;12.25;5.03;;;22.40;66.80;;;;;;6242478;23;20742;-76
2021/03/18 03:50:41;;;;;;;10.63;4.88;;;22.40;66.80;;;;;;6243081;23;20000;-77
2021/03/18 03:53:18;;;;;;;9.18;4.60;;;22.30;66.70;;;;;;6242475;23;20309;-79
2021/03/18 03:56:15;;;;;;;8.82;3.63;;;22.30;66.70;;;;;;6242263;23;19997;-79
2021/03/18 03:59:03;;;;;;;6.93;3.58;;;22.30;66.60;;;;;;6242289;23;20000;-79
2021/03/18 04:01:43;;;;;;;4.57;2.90;;;22.30;66.40;;;;;;6242559;23;20012;-79
2021/03/18 04:04:19;;;;;;;6.15;2.85;;;22.30;66.30;;;;;;6243255;23;20092;-76
2021/03/18 04:06:48;;;;;;;5.38;2.55;;;22.30;66.20;;;;;;6243416;23;20028;-85
2021/03/18 04:09:17;;;;;;;6.45;2.58;;;22.30;66.10;;;;;;6242318;23;20004;-80
2021/03/18 04:11:44;;;;;;;7.72;2.20;;;22.20;66.10;;;;;;6243234;23;20062;-78
2021/03/18 04:14:13;;;;;;;3.78;2.53;;;22.20;66.10;;;;;;6240664;23;20011;-83
2021/03/18 04:16:43;;;;;;;6.32;2.22;;;22.20;66.20;;;;;;6243141;23;20000;-76
2021/03/18 04:19:13;;;;;;;4.00;1.85;;;22.20;66.20;;;;;;6242403;23;19996;-75
2021/03/18 04:21:42;;;;;;;8.38;5.95;;;22.20;66.20;;;;;;6240939;23;20035;-75
2021/03/18 04:24:11;;;;;;;12.32;7.10;;;22.20;66.20;;;;;;6242408;23;20440;-77
2021/03/18 04:26:44;;;;;;;8.70;5.72;;;22.20;66.30;;;;;;6241586;23;20011;-73
2021/03/18 04:29:12;;;;;;;4.22;3.83;;;22.20;66.30;;;;;;6242002;23;19997;-79
2021/03/18 04:31:41;;;;;;;5.43;4.13;;;22.10;66.30;;;;;;6241278;23;20042;-77
2021/03/18 04:34:10;;;;;;;6.57;4.03;;;22.10;66.30;;;;;;6242302;23;20012;-77
2021/03/18 04:36:38;;;;;;;8.63;5.47;;;22.10;66.40;;;;;;6239762;23;20451;-75
2021/03/18 04:39:08;;;;;;;13.27;5.65;;;22.10;66.50;;;;;;6241175;23;20059;-76
2021/03/18 04:41:35;;;;;;;11.27;5.40;;;22.10;66.40;;;;;;6242306;23;20355;-76
2021/03/18 04:44:02;;;;;;;8.77;4.13;;;22.10;66.30;;;;;;6241316;23;19996;-76
2021/03/18 04:46:31;;;;;;;7.07;3.53;;;22.10;66.30;;;;;;6241833;23;20050;-77
2021/03/18 04:49:00;;;;;;;9.90;5.05;;;22.10;66.40;;;;;;6240390;23;20004;-75
2021/03/18 04:51:28;;;;;;;6.93;3.53;;;22.10;66.50;;;;;;6240720;23;19996;-75
2021/03/18 04:53:59;;;;;;;6.82;2.97;;;22.10;66.60;;;;;;6240434;23;20003;-75
2021/03/18 04:56:26;;;;;;;3.65;2.75;;;22.10;66.60;;;;;;6240670;23;20027;-76
2021/03/18 04:58:57;;;;;;;4.55;2.83;;;22.00;66.50;;;;;;6240963;23;20007;-76
2021/03/18 05:01:27;;;;;;;4.10;2.55;;;22.00;66.40;;;;;;6239021;23;20015;-74
2021/03/18 05:03:54;;;;;;;5.00;1.40;;;22.00;66.50;;;;;;6240368;23;20094;-73
2021/03/18 05:06:24;;;;;;;5.03;1.98;;;22.00;66.50;;;;;;6212695;23;20075;-76
2021/03/18 05:08:52;;;;;;;2.95;1.90;;;22.00;66.40;;;;;;6239640;23;20008;-76
2021/03/18 05:11:21;;;;;;;6.88;2.05;;;22.00;66.40;;;;;;6240744;23;20000;-76
2021/03/18 05:13:50;;;;;;;2.72;1.45;;;22.00;66.30;;;;;;6239887;23;20003;-76
2021/03/18 05:16:18;;;;;;;4.00;1.65;;;22.00;66.40;;;;;;6240400;23;20015;-73
2021/03/18 05:18:45;;;;;;;7.95;1.85;;;22.00;66.40;;;;;;6239594;23;19996;-77
2021/03/18 05:21:13;;;;;;;4.03;2.35;;;22.00;66.40;;;;;;6213018;23;20044;-77
2021/03/18 05:23:41;;;;;;;5.78;1.73;;;22.00;66.50;;;;;;6238806;23;20028;-76
2021/03/18 05:26:09;;;;;;;4.10;1.90;;;21.90;66.50;;;;;;6240552;23;20004;-73
2021/03/18 05:28:37;;;;;;;2.13;1.85;;;22.00;66.60;;;;;;6239477;23;19996;-75
2021/03/18 05:31:04;;;;;;;2.38;1.88;;;22.00;66.70;;;;;;6239316;23;20318;-76
2021/03/18 05:33:32;;;;;;;2.63;1.70;;;21.90;66.90;;;;;;6240034;23;20047;-76
2021/03/18 05:35:59;;;;;;;3.55;1.92;;;21.90;67.00;;;;;;6239005;23;20471;-77
2021/03/18 05:38:26;;;;;;;3.38;1.92;;;21.90;67.20;;;;;;6239908;23;20328;-76
2021/03/18 05:40:57;;;;;;;3.13;1.83;;;21.90;68.00;;;;;;6239185;23;20012;-75
2021/03/18 05:43:25;;;;;;;3.92;2.08;;;21.90;67.30;;;;;;6240531;23;20000;-77
2021/03/18 05:45:52;;;;;;;2.58;2.28;;;21.90;67.50;;;;;;6239094;23;20004;-73
2021/03/18 05:48:21;;;;;;;3.53;2.80;;;21.90;67.50;;;;;;6239770;23;20004;-73
2021/03/18 05:50:49;;;;;;;5.63;2.40;;;21.90;67.60;;;;;;6241689;23;20011;-73
2021/03/18 05:53:20;;;;;;;6.32;2.35;;;21.90;67.70;;;;;;6240396;23;20051;-72
2021/03/18 05:55:47;;;;;;;3.17;2.53;;;21.90;67.80;;;;;;6241427;23;20469;-76
2021/03/18 05:58:14;;;;;;;3.58;2.75;;;21.90;68.00;;;;;;6240591;23;20439;-76
2021/03/18 06:00:43;;;;;;;3.47;2.60;;;21.90;68.00;;;;;;6241435;23;20020;-76
2021/03/18 06:03:10;;;;;;;3.28;2.45;;;21.90;68.10;;;;;;6240797;23;20010;-77
2021/03/18 06:05:36;;;;;;;6.25;3.35;;;21.90;68.20;;;;;;6239948;23;19996;-75
2021/03/18 06:08:05;;;;;;;5.20;3.05;;;21.90;68.30;;;;;;6241300;23;20004;-77
2021/03/18 06:10:31;;;;;;;7.15;3.28;;;21.90;68.30;;;;;;6240162;23;20011;-76
2021/03/18 06:13:00;;;;;;;4.47;3.03;;;21.90;68.40;;;;;;6240832;23;20550;-77
2021/03/18 06:15:28;;;;;;;5.43;3.42;;;21.90;68.50;;;;;;6239302;23;20004;-77
2021/03/18 06:17:56;;;;;;;8.48;3.25;;;21.90;68.60;;;;;;6241138;23;20000;-77
2021/03/18 06:20:28;;;;;;;5.85;3.22;;;21.90;68.80;;;;;;6240022;23;20087;-78
2021/03/18 06:22:56;;;;;;;7.85;3.67;;;21.90;68.90;;;;;;6240543;23;20006;-75
2021/03/18 06:25:37;;;;;;;9.48;3.83;;;21.90;68.90;;;;;;6241050;23;20002;-78
2021/03/18 06:28:27;;;;;;;5.63;3.38;;;21.90;69.10;;;;;;6239194;23;20000;-76
2021/03/18 06:30:57;;;;;;;10.27;3.67;;;22.00;69.00;;;;;;6240957;23;20004;-76
2021/03/18 06:33:26;;;;;;;5.20;2.97;;;22.00;69.10;;;;;;6239477;23;20067;-76
2021/03/18 06:35:55;;;;;;;7.88;2.90;;;22.00;69.10;;;;;;6240409;23;20004;-77
2021/03/18 06:38:30;;;;;;;6.03;3.08;;;22.00;69.10;;;;;;6240943;23;20419;-77
2021/03/18 06:40:57;;;;;;;4.78;2.60;;;22.00;69.10;;;;;;6239429;23;20016;-76
2021/03/18 06:43:41;;;;;;;9.60;2.95;;;22.00;69.10;;;;;;6240463;23;19997;-73
2021/03/18 06:46:22;;;;;;;6.17;2.80;;;22.10;69.00;;;;;;6240370;23;20115;-78
2021/03/18 06:48:51;;;;;;;9.23;3.42;;;22.10;68.80;;;;;;6240357;23;20004;-77
2021/03/18 06:51:26;;;;;;;9.13;2.80;;;22.10;68.60;;;;;;6241053;23;20008;-77
2021/03/18 06:53:54;;;;;;;7.22;2.75;;;22.20;68.10;;;;;;6240065;23;20054;-76
2021/03/18 06:56:32;;;;;;;8.75;3.03;;;22.20;67.70;;;;;;6214227;23;20316;-76
2021/03/18 06:59:00;;;;;;;5.07;2.38;;;22.20;67.30;;;;;;6239418;23;20004;-76
2021/03/18 07:01:33;;;;;;;5.32;2.38;;;22.20;66.90;;;;;;6240908;23;20085;-76
2021/03/18 07:04:04;;;;;;;3.53;2.35;;;22.20;66.60;;;;;;6240502;23;20007;-76
2021/03/18 07:06:35;;;;;;;14.43;4.28;;;22.30;66.50;;;;;;6213398;23;20079;-77
2021/03/18 07:09:09;;;;;;;4.85;2.65;;;22.30;66.40;;;;;;6240396;23;20084;-74
2021/03/18 07:11:38;;;;;;;6.28;2.00;;;22.30;66.30;;;;;;6239218;23;20008;-74
2021/03/18 07:14:06;;;;;;;5.38;2.58;;;22.30;66.30;;;;;;6241262;23;20001;-74
2021/03/18 07:16:46;;;;;;;8.38;2.17;;;22.30;66.30;;;;;;6239922;23;20008;-74
2021/03/18 07:19:25;;;;;;;3.10;1.60;;;22.40;66.40;;;;;;6240024;23;20000;-74
2021/03/18 07:21:52;;;;;;;3.22;1.88;;;22.40;66.40;;;;;;6240580;23;20379;-75
2021/03/18 07:24:27;;;;;;;4.75;1.38;;;22.40;66.50;;;;;;6239757;23;20067;-74
2021/03/18 07:26:56;;;;;;;4.88;2.17;;;22.40;66.50;;;;;;6240904;23;20004;-74
2021/03/18 07:29:27;;;;;;;6.13;1.90;;;22.50;66.40;;;;;;6241908;23;19996;-74
2021/03/18 07:31:55;;;;;;;9.25;2.88;;;22.50;66.90;;;;;;6215762;23;20357;-74
2021/03/18 07:34:23;;;;;;;8.23;1.92;;;22.50;66.10;;;;;;6242517;23;20420;-73
2021/03/18 07:36:49;;;;;;;7.82;2.03;;;22.60;66.10;;;;;;6241238;23;20050;-74
2021/03/18 07:39:16;;;;;;;5.40;1.75;;;22.60;66.00;;;;;;6242970;23;20015;-74
2021/03/18 07:41:48;;;;;;;4.47;1.48;;;22.60;65.90;;;;;;6240679;23;20012;-74
2021/03/18 07:44:15;;;;;;;4.53;1.90;;;22.70;65.90;;;;;;6242243;23;20249;-74
2021/03/18 07:46:42;;;;;;;7.57;2.15;;;22.70;65.80;;;;;;6241181;23;19996;-75
2021/03/18 07:49:15;;;;;;;4.70;1.70;;;22.80;65.70;;;;;;6241970;23;20492;-74
2021/03/18 07:51:45;;;;;;;5.13;1.60;;;22.80;65.50;;;;;;6241334;23;20050;-74
2021/03/18 07:54:18;;;;;;;5.72;1.83;;;22.80;65.40;;;;;;6241727;23;20304;-74
2021/03/18 07:56:55;;;;;;;5.43;1.80;;;22.90;65.10;;;;;;6242897;23;20305;-75
2021/03/18 07:59:30;;;;;;;7.13;1.20;;;22.90;65.00;;;;;;6241690;23;20386;-74
2021/03/18 08:02:22;;;;;;;3.35;1.30;;;23.00;64.90;;;;;;6243016;23;20001;-74
2021/03/18 08:04:54;;;;;;;6.30;1.70;;;23.00;64.50;;;;;;6242299;23;20008;-75
2021/03/18 08:07:43;;;;;;;5.28;1.60;;;23.00;64.20;;;;;;6241355;23;20000;-74
2021/03/18 08:10:22;;;;;;;4.57;1.25;;;23.00;64.00;;;;;;6243212;23;19996;-75
2021/03/18 08:12:56;;;;;;;2.58;1.27;;;23.10;63.90;;;;;;6241940;23;20085;-74
2021/03/18 08:15:29;;;;;;;3.00;1.60;;;23.10;63.80;;;;;;6242585;23;20047;-75
2021/03/18 08:18:16;;;;;;;5.35;1.83;;;23.10;63.70;;;;;;6242686;23;20050;-76
2021/03/18 08:20:43;;;;;;;3.10;1.35;;;23.20;63.80;;;;;;6241192;23;20012;-75
2021/03/18 08:23:24;;;;;;;2.78;1.13;;;23.20;63.70;;;;;;6241196;23;20427;-75
2021/03/18 08:26:10;;;;;;;3.00;1.10;;;23.30;63.70;;;;;;6241731;23;20000;-75
2021/03/18 08:28:46;;;;;;;5.22;2.17;;;23.30;63.70;;;;;;6241864;23;20486;-74
2021/03/18 08:31:14;;;;;;;5.93;1.48;;;23.40;64.20;;;;;;6242738;23;20000;-75
2021/03/18 08:33:48;;;;;;;2.58;1.38;;;23.50;64.30;;;;;;6241113;23;20070;-75
2021/03/18 08:36:25;;;;;;;6.47;1.43;;;23.50;64.50;;;;;;6242718;23;20000;-75
2021/03/18 08:39:35;;;;;;;3.80;1.58;;;23.60;64.50;;;;;;6241636;23;20423;-75
2021/03/18 08:42:02;;;;;;;4.25;1.52;;;23.60;64.80;;;;;;6227206;23;20066;-74
2021/03/18 08:44:33;;;;;;;6.30;1.40;;;23.60;65.10;;;;;;6241868;23;20000;-74
2021/03/18 08:47:05;;;;;;;2.92;1.10;;;23.70;65.40;;;;;;6241785;23;20018;-75
2021/03/18 08:49:43;;;;;;;5.25;1.42;;;23.70;65.40;;;;;;6243103;23;20000;-75
2021/03/18 08:52:19;;;;;;;5.95;1.45;;;23.70;65.60;;;;;;6241745;23;20000;-75
2021/03/18 08:54:51;;;;;;;2.88;1.38;;;23.70;65.60;;;;;;6241290;23;19988;-75
2021/03/18 08:57:21;;;;;;;3.75;1.25;;;23.80;65.50;;;;;;6215525;23;20008;-75
2021/03/18 08:59:54;;;;;;;2.63;1.33;;;23.80;65.50;;;;;;6240718;23;20039;-75
2021/03/18 09:02:31;;;;;;;2.85;1.30;;;23.80;65.40;;;;;;6242854;23;20004;-75
2021/03/18 09:05:00;;;;;;;1.73;0.90;;;23.80;65.40;;;;;;6242181;23;20000;-75
2021/03/18 09:07:30;;;;;;;4.50;1.40;;;23.80;65.50;;;;;;6241679;23;20023;-75
2021/03/18 09:10:07;;;;;;;1.85;0.98;;;23.80;65.60;;;;;;6242356;23;20000;-75
2021/03/18 09:12:53;;;;;;;3.47;1.15;;;23.80;65.70;;;;;;6241054;23;20087;-75
2021/03/18 09:15:36;;;;;;;4.53;1.20;;;23.80;65.70;;;;;;6241826;23;20035;-75
2021/03/18 09:18:21;;;;;;;5.53;1.50;;;23.80;65.70;;;;;;6242207;23;20035;-75
2021/03/18 09:21:02;;;;;;;8.88;1.00;;;23.90;65.70;;;;;;6240889;23;20544;-75
2021/03/18 09:23:34;;;;;;;1.08;0.88;;;23.90;65.60;;;;;;6241788;23;20423;-76
2021/03/18 09:26:04;;;;;;;3.88;1.38;;;23.90;65.50;;;;;;6213968;23;20026;-75
2021/03/18 09:28:39;;;;;;;2.38;0.93;;;23.90;65.50;;;;;;6241956;23;20328;-77
2021/03/18 09:31:05;;;;;;;;;;;24.00;65.60;;;;;;6242131;23;20011;-77
2021/03/18 09:33:35;;;;;;;4.15;1.23;;;24.00;65.30;;;;;;6241182;23;19946;-76
2021/03/18 09:36:21;;;;;;;2.55;1.35;;;24.10;65.30;;;;;;6214140;23;20008;-77
2021/03/18 09:39:11;;;;;;;8.40;1.60;;;24.10;64.90;;;;;;6239839;23;20004;-77
2021/03/18 09:41:39;;;;;;;5.90;1.63;;;24.20;64.80;;;;;;6215402;23;20019;-77
2021/03/18 09:44:10;;;;;;;3.90;1.65;;;24.20;64.60;;;;;;6242312;23;20007;-77
2021/03/18 09:46:39;;;;;;;1.20;1.10;;;24.20;64.50;;;;;;6241249;23;20420;-77
2021/03/18 09:49:06;;;;;;;4.28;1.63;;;24.20;64.20;;;;;;6242265;23;20004;-76
2021/03/18 09:51:38;;;;;;;3.58;1.45;;;24.30;64.20;;;;;;6240367;23;19996;-77
2021/03/18 09:54:08;;;;;;;3.80;1.27;;;24.30;64.20;;;;;;6214629;23;20011;-77
2021/03/18 09:56:40;;;;;;;2.08;1.38;;;24.40;64.20;;;;;;6241550;23;20007;-78
2021/03/18 09:59:09;;;;;;;3.60;1.70;;;24.40;64.00;;;;;;6242163;23;20434;-78
2021/03/18 10:01:35;;;;;;;5.70;4.32;;;24.50;63.90;;;;;;6239741;23;20008;-77
2021/03/18 10:04:19;;;;;;;7.40;3.53;;;24.50;63.90;;;;;;6240425;23;20004;-76
2021/03/18 10:06:57;;;;;;;2.60;2.40;;;24.50;63.90;;;;;;6215010;23;20018;-77
2021/03/18 10:09:32;;;;;;;4.68;1.98;;;24.50;63.90;;;;;;6213021;23;20009;-78
2021/03/18 10:12:05;;;;;;;5.28;1.27;;;24.60;64.00;;;;;;6242245;23;19997;-77
2021/03/18 10:14:39;;;;;;;2.10;1.40;;;24.60;64.10;;;;;;6214730;23;20005;-78
2021/03/18 10:17:24;;;;;;;3.55;1.52;;;24.60;64.10;;;;;;6240716;23;20005;-77
2021/03/18 10:19:59;;;;;;;2.65;1.10;;;24.60;64.00;;;;;;6241565;23;20036;-77
2021/03/18 10:22:39;;;;;;;7.82;1.80;;;24.70;63.90;;;;;;6240383;23;20004;-77
2021/03/18 10:25:13;;;;;;;2.92;1.30;;;24.70;63.80;;;;;;6240014;23;20011;-78
2021/03/18 10:27:51;;;;;;;5.72;1.10;;;24.70;63.80;;;;;;6241586;23;19996;-78
2021/03/18 10:30:20;;;;;;;2.45;1.25;;;24.80;63.80;;;;;;6240982;23;20027;-77
2021/03/18 10:33:07;;;;;;;4.68;1.83;;;24.90;63.80;;;;;;6241600;23;20020;-77
2021/03/18 10:35:58;;;;;;;1.23;1.00;;;24.90;63.90;;;;;;6240255;23;20004;-76
2021/03/18 10:38:39;;;;;;;4.00;2.03;;;24.90;63.80;;;;;;6226144;23;20008;-77
2021/03/18 10:41:11;;;;;;;10.20;8.23;;;25.00;64.00;;;;;;6241461;23;20020;-78
2021/03/18 10:43:43;;;;;;;16.48;12.10;;;25.00;63.90;;;;;;6233526;23;20079;-77
2021/03/18 10:46:13;;;;;;;14.23;10.77;;;25.10;64.00;;;;;;6240881;23;20380;-77
2021/03/18 10:48:40;;;;;;;18.80;13.50;;;25.10;64.30;;;;;;6240683;23;20000;-78
2021/03/18 10:51:15;;;;;;;15.50;12.05;;;25.20;64.40;;;;;;6239987;23;20450;-78
2021/03/18 10:53:44;;;;;;;23.45;17.50;;;25.20;64.30;;;;;;6242011;23;20424;-78
2021/03/18 10:56:18;;;;;;;21.73;16.77;;;25.20;64.20;;;;;;6240821;23;20043;-76
2021/03/18 10:58:46;;;;;;;15.75;12.70;;;25.30;64.00;;;;;;6241402;23;20106;-78
2021/03/18 11:01:20;;;;;;;7.00;5.32;;;25.30;63.90;;;;;;6240331;23;20020;-76
2021/03/18 11:03:48;;;;;;;5.15;3.65;;;25.40;63.80;;;;;;6243945;23;20331;-77
2021/03/18 11:06:16;;;;;;;7.15;2.83;;;25.40;63.70;;;;;;6243139;23;19996;-78
2021/03/18 11:08:44;;;;;;;4.35;2.15;;;25.50;63.60;;;;;;6243150;23;20000;-77
2021/03/18 11:11:17;;;;;;;4.68;1.55;;;25.60;63.40;;;;;;6242303;23;20007;-78
2021/03/18 11:13:44;;;;;;;1.73;1.23;;;25.50;63.10;;;;;;6241869;23;20007;-78
2021/03/18 11:16:19;;;;;;;2.97;1.30;;;25.50;63.00;;;;;;6243762;23;20004;-77
2021/03/18 11:18:46;;;;;;;;;;;25.60;62.90;;;;;;6243427;23;20360;-77
2021/03/18 11:21:25;;;;;;;3.55;1.08;;;25.60;63.20;;;;;;6243331;23;19918;-78
2021/03/18 11:23:55;;;;;;;3.60;1.08;;;25.60;63.40;;;;;;6243162;23;20007;-77
2021/03/18 11:26:24;;;;;;;1.80;0.85;;;25.60;63.60;;;;;;6215274;23;20079;-76
2021/03/18 11:29:10;;;;;;;4.40;1.10;;;25.70;63.80;;;;;;6243672;23;20067;-78
2021/03/18 11:31:40;;;;;;;3.97;1.20;;;25.70;64.20;;;;;;6242271;23;20004;-77
2021/03/18 11:34:35;;;;;;;2.25;0.80;;;25.70;64.00;;;;;;6242681;23;20012;-77
2021/03/18 11:37:08;;;;;;;4.25;1.25;;;25.80;63.80;;;;;;6235410;23;20017;-77
2021/03/18 11:39:35;;;;;;;0.90;0.80;;;25.80;63.70;;;;;;6241596;23;19996;-77
2021/03/18 11:42:02;;;;;;;5.45;1.30;;;25.80;63.80;;;;;;6243180;23;20020;-78
2021/03/18 11:44:31;;;;;;;3.58;1.50;;;25.90;63.90;;;;;;6241707;23;20007;-77
2021/03/18 11:47:07;;;;;;;2.55;1.38;;;25.90;64.00;;;;;;6215990;23;20403;-78
2021/03/18 11:49:34;;;;;;;4.88;1.75;;;25.90;63.90;;;;;;6242449;23;20010;-78
2021/03/18 11:52:01;;;;;;;4.03;1.70;;;26.00;63.90;;;;;;6241995;23;20332;-77
2021/03/18 11:54:28;;;;;;;5.32;1.85;;;25.90;63.70;;;;;;6243443;23;19996;-77
2021/03/18 11:56:54;;;;;;;1.90;1.33;;;25.90;63.70;;;;;;6241904;23;20481;-78
2021/03/18 11:59:21;;;;;;;4.15;1.55;;;25.80;63.50;;;;;;6243072;23;20439;-78
2021/03/18 12:01:47;;;;;;;2.97;1.63;;;25.80;63.50;;;;;;6240860;23;20542;-78
2021/03/18 12:04:14;;;;;;;6.13;2.00;;;25.70;63.50;;;;;;6243158;23;20452;-77
2021/03/18 12:06:41;;;;;;;6.45;1.90;;;25.70;63.70;;;;;;6242285;23;19996;-77
2021/03/18 12:09:07;;;;;;;6.45;2.03;;;25.60;63.50;;;;;;6242674;23;20046;-77
2021/03/18 12:11:35;;;;;;;7.65;2.42;;;25.60;63.20;;;;;;6216104;23;20424;-77
2021/03/18 12:14:02;;;;;;;4.60;2.38;;;25.50;63.20;;;;;;6242050;23;20007;-77
2021/03/18 12:16:29;;;;;;;5.15;2.10;;;25.50;63.20;;;;;;6243253;23;20004;-77
2021/03/18 12:18:55;;;;;;;15.00;2.58;;;25.50;63.40;;;;;;6241160;23;20008;-77
2021/03/18 12:21:22;;;;;;;7.25;2.38;;;25.60;63.60;;;;;;6242810;23;20332;-76
2021/03/18 12:23:49;;;;;;;8.40;2.53;;;25.60;63.60;;;;;;6241575;23;20008;-76
2021/03/18 12:26:15;;;;;;;5.47;2.08;;;25.60;63.40;;;;;;6214510;23;20340;-76
2021/03/18 12:28:41;;;;;;;9.77;2.08;;;25.70;63.20;;;;;;6242301;23;20040;-76
2021/03/18 12:31:09;;;;;;;8.45;2.65;;;25.70;63.00;;;;;;6242372;23;20419;-75
2021/03/18 12:33:35;;;;;;;7.95;2.25;;;25.70;62.90;;;;;;6242678;23;20016;-77
2021/03/18 12:36:02;;;;;;;4.85;1.63;;;25.80;63.00;;;;;;6241556;23;20000;-76
2021/03/18 12:38:29;;;;;;;3.40;1.75;;;25.70;63.00;;;;;;6242271;23;20051;-76
2021/03/18 12:40:55;;;;;;;5.70;1.85;;;25.60;63.10;;;;;;6241159;23;20012;-76
2021/03/18 12:43:23;;;;;;;8.63;2.58;;;25.60;63.20;;;;;;6242521;23;20613;-75
2021/03/18 12:45:49;;;;;;;4.53;2.88;;;25.70;62.90;;;;;;6242191;23;19996;-77
2021/03/18 12:48:16;;;;;;;7.78;1.98;;;25.60;62.60;;;;;;6242710;23;20031;-75
2021/03/18 12:50:43;;;;;;;7.13;2.42;;;25.60;62.50;;;;;;6241343;23;20062;-76
2021/03/18 12:53:10;;;;;;;5.40;1.63;;;25.60;62.30;;;;;;6213076;23;20340;-77
2021/03/18 12:55:37;;;;;;;4.45;1.70;;;25.60;62.30;;;;;;6241368;23;20011;-76
2021/03/18 12:58:03;;;;;;;5.70;1.65;;;25.60;62.50;;;;;;6213661;23;20027;-76
2021/03/18 13:00:32;;;;;;;2.28;1.13;;;25.60;62.60;;;;;;6242384;23;20008;-75
2021/03/18 13:02:59;;;;;;;2.85;2.08;;;25.60;62.70;;;;;;6241224;23;20527;-77
2021/03/18 13:05:26;;;;;;;4.60;1.88;;;25.60;62.80;;;;;;6241679;23;20079;-75
2021/03/18 13:07:52;;;;;;;2.95;1.30;;;25.50;62.80;;;;;;6214185;23;20007;-76
2021/03/18 13:10:20;;;;;;;4.53;1.90;;;25.50;62.90;;;;;;6241560;23;20028;-77
2021/03/18 13:12:47;;;;;;;3.80;1.40;;;25.60;63.10;;;;;;6241206;23;20058;-76
2021/03/18 13:15:15;;;;;;;2.03;1.10;;;25.60;63.20;;;;;;6213763;23;20339;-75
2021/03/18 13:17:43;;;;;;;3.60;1.40;;;25.60;63.20;;;;;;6241990;23;20004;-75
2021/03/18 13:20:19;;;;;;;5.03;1.40;;;25.60;63.20;;;;;;6240487;23;20016;-75
2021/03/18 13:22:46;;;;;;;3.90;1.25;;;25.60;63.20;;;;;;6241757;23;20003;-75
2021/03/18 13:25:14;;;;;;;3.72;1.10;;;25.70;63.30;;;;;;6241571;23;20026;-75
2021/03/18 13:27:41;;;;;;;5.30;1.75;;;25.80;63.30;;;;;;6241125;23;20320;-76
2021/03/18 13:30:17;;;;;;;4.38;1.45;;;25.80;63.20;;;;;;6242051;23;19996;-75